Frenchville, ME

4:44 PM EDT on July 31, 2015 (GMT -0400)
Northern Aroostook Regional | | Change Station
CLOSE
Current Station
Airport
Location: Frenchville,
Elevation: 988 ft
Nearby Weather Stations

Elev 988 ft 47.29 °N, 68.31 °W | Updated 51 minutes ago

Overcast
Overcast
75 °F
Feels Like 75 °F
N
9
Wind Variable Wind from NW
Gusts 21 mph

Today
High -- | Low -- °F
--% Chance of Precip.
Yesterday
High -- | Low -- °F
Precip. -- in
5:10 AM 8:08 PM
Full, 100% visible
Pressure 29.59 in
Visibility 10.0 miles
Clouds Mostly Cloudy 3900 ft
Overcast 11000 ft
Dew Point 61 °F
Humidity 62%
Rainfall 0.00 in
Snow Depth Not available.
UV 2 out of 12
Pollen 4.80 out of 12
Air Quality Not available.
Flu Activity Not available.
METAR KFVE 311953Z AUTO 31008G18KT 10SM BKN039 OVC110 24/16 A2960 RMK AO2 SLP018 T02390161

More Conditions Fewer Conditions

Pressure 29.59 in
Visibility 10.0 miles
Clouds Mostly Cloudy 3900 ft
Overcast 11000 ft
Dew Point 61 °F
Humidity 62%
Rainfall 0.00 in
Snow Depth Not available.
UV 2 out of 12
Pollen 4.80 out of 12
Air Quality Not available.
Flu Activity Not available.
METAR KFVE 311953Z AUTO 31008G18KT 10SM BKN039 OVC110 24/16 A2960 RMK AO2 SLP018 T02390161

More Conditions Fewer Conditions

10-Day Weather Forecast

×

Almanac

Astronomy

Jul. 31, 2015 Rise Set
Actual Time
Civil Twilight
Nautical Twilight
Astronomical Twilight
Moon
Length of Visible Light
Length of Day
Tomorrow will be .
, % of the Moon is Illuminated

Today's Extremes

State Highs State Lows

Community

WunderPhotos

Upload Photos

1,842,737 photos uploaded!

WunderBlogs® & News

Nearby

Air Quality

  Air Quality AQ Index Pollutant
Not available.

Snow Depth

Station Depth Elevation

Earthquake Activity

City Distance Mag. Time & Date
Minimum magnitude displayed is 2.5.

Coastal Water Temperatures

Place Temperature

Stations

Nearby Weather Stations

Station Location Temp. Windchill Dew Point Humidity Wind Precip. Elev Updated Type